Terminal Aerodrome Forecast
Issued by NWS Charleston, WV

Current Version | Previous Version | Graphics & Text | Print | Product List | Glossary On
Versions: 1 2 3 4 5 6 7 8 9 10 11 12 13 14 15 16 17 18 19 20 21 22 23 24 25 26
000
FTUS41 KRLX 191700
TAFHTS
TAF
KHTS 191740Z 1918/2018 28008KT P6SM BKN050
     FM200700 VRB03KT 6SM BR FEW090
     FM200900 34004KT 2SM BR OVC003
     FM201200 35004KT 4SM BR FEW003
     FM201400 35005KT P6SM SCT200=

USA.gov is the U.S. government's official web portal to all federal, state and local government web resources and services.